Time;durP1;ratioP1;P1;durP2;ratioP2;P2;SDS_P1;SDS_P2;PMS_P1;PMS_P2;Temp;Humidity;BMP_temperature;BMP_pressure;BME280_temperature;BME280_humidity;BME280_pressure;Samples;Min_cycle;Max_cycle;Signal;HPM_P1;HPM_P2
2022/07/08 00:02:02;;;;;;;14.73;14.23;;;;;;;-141.02;100.00;55844.97;5071552;28;20233;-74
2022/07/08 00:04:30;;;;;;;13.65;13.15;;;;;;;-141.02;100.00;55844.97;5072396;28;20202;-74
2022/07/08 00:06:57;;;;;;;13.23;12.82;;;;;;;-141.02;100.00;55844.97;5072279;28;20277;-74
2022/07/08 00:09:26;;;;;;;13.27;12.80;;;;;;;-141.02;100.00;55844.97;5072347;28;20276;-74
2022/07/08 00:11:53;;;;;;;13.02;12.63;;;;;;;-141.02;100.00;55844.97;5071927;28;20233;-74
2022/07/08 00:14:22;;;;;;;12.40;12.00;;;;;;;-141.02;100.00;55844.97;5071966;28;20230;-74
2022/07/08 00:16:50;;;;;;;12.40;12.00;;;;;;;-141.02;100.00;55844.97;5071976;28;20256;-74
2022/07/08 00:19:19;;;;;;;12.40;12.00;;;;;;;-141.02;100.00;55844.97;5072119;28;20281;-74
2022/07/08 00:21:49;;;;;;;12.57;12.18;;;;;;;-141.02;100.00;55844.97;5071887;28;20285;-74
2022/07/08 00:24:17;;;;;;;12.10;11.70;;;;;;;-141.02;100.00;55844.97;5072111;28;20289;-74
2022/07/08 00:26:45;;;;;;;11.77;11.38;;;;;;;-141.02;100.00;55844.97;5071861;28;20196;-74
2022/07/08 00:29:12;;;;;;;12.43;12.02;;;;;;;-141.02;100.00;55844.97;5071728;28;20198;-74
2022/07/08 00:31:40;;;;;;;13.10;12.70;;;;;;;-141.02;100.00;55844.97;5072043;28;20262;-74
2022/07/08 00:34:08;;;;;;;12.85;12.45;;;;;;;-141.02;100.00;55844.97;5072041;28;20217;-74
2022/07/08 00:36:35;;;;;;;13.02;12.63;;;;;;;-141.02;100.00;55844.97;5072024;28;20190;-74
2022/07/08 00:39:03;;;;;;;13.48;12.98;;;;;;;-141.02;100.00;55844.97;5072018;28;20202;-74
2022/07/08 00:41:30;;;;;;;13.10;12.70;;;;;;;-141.02;100.00;55844.97;5071958;28;20198;-74
2022/07/08 00:43:57;;;;;;;12.82;12.43;;;;;;;-141.02;100.00;55844.97;5071940;28;20194;-74
2022/07/08 00:46:25;;;;;;;13.13;12.73;;;;;;;-141.02;100.00;55844.97;5071965;28;20195;-74
2022/07/08 00:48:54;;;;;;;12.60;12.20;;;;;;;-141.02;100.00;55844.97;5071605;28;20248;-74
2022/07/08 00:51:21;;;;;;;13.38;12.98;;;;;;;-141.02;100.00;55844.97;5071883;28;20265;-74
2022/07/08 00:53:52;;;;;;;13.02;12.63;;;;;;;-141.02;100.00;55844.97;5071836;28;20297;-74
2022/07/08 00:56:20;;;;;;;13.18;12.77;;;;;;;-141.02;100.00;55844.97;5071353;28;20287;-74
2022/07/08 00:58:48;;;;;;;12.10;11.70;;;;;;;-141.02;100.00;55844.97;5071750;28;20198;-73
2022/07/08 01:01:15;;;;;;;11.98;11.57;;;;;;;-141.02;100.00;55844.97;5071522;28;20256;-74
2022/07/08 01:03:43;;;;;;;11.20;10.90;;;;;;;-141.02;100.00;55844.97;5071777;28;20673;-74
2022/07/08 01:06:11;;;;;;;10.90;10.60;;;;;;;-141.02;100.00;55844.97;5071748;28;20217;-74
2022/07/08 01:08:39;;;;;;;10.77;10.48;;;;;;;-141.02;100.00;55844.97;5071409;28;20560;-74
2022/07/08 01:11:07;;;;;;;10.55;10.25;;;;;;;-141.02;100.00;55844.97;5071510;28;20711;-74
2022/07/08 01:13:35;;;;;;;11.10;10.80;;;;;;;-141.02;100.00;55844.97;5074396;28;20205;-74
2022/07/08 01:16:02;;;;;;;11.20;10.90;;;;;;;-141.02;100.00;55844.97;5075081;28;20217;-74
2022/07/08 01:18:31;;;;;;;11.52;11.15;;;;;;;-141.02;100.00;55844.97;5075059;28;20194;-74
2022/07/08 01:20:59;;;;;;;11.65;11.25;;;;;;;-141.02;100.00;55844.97;5075369;28;20283;-74
2022/07/08 01:23:27;;;;;;;12.50;12.10;;;;;;;-141.02;100.00;55844.97;5075013;28;20198;-74
2022/07/08 01:25:55;;;;;;;11.90;11.50;;;;;;;-141.02;100.00;55844.97;5075724;28;20209;-74
2022/07/08 01:28:23;;;;;;;11.77;11.38;;;;;;;-141.02;100.00;55844.97;5074796;28;20666;-74
2022/07/08 01:30:50;;;;;;;11.23;10.93;;;;;;;-141.02;100.00;55844.97;5075026;28;20194;-74
2022/07/08 01:33:17;;;;;;;12.10;11.70;;;;;;;-141.02;100.00;55844.97;5074737;28;20198;-74
2022/07/08 01:35:45;;;;;;;12.10;11.70;;;;;;;-141.02;100.00;55844.97;5074772;28;20202;-74
2022/07/08 01:38:13;;;;;;;11.77;11.38;;;;;;;-141.02;100.00;55844.97;5074704;28;20290;-74
2022/07/08 01:40:41;;;;;;;11.30;11.00;;;;;;;-141.02;100.00;55844.97;5074621;28;20195;-74
2022/07/08 01:43:08;;;;;;;11.20;10.90;;;;;;;-141.02;100.00;55844.97;5074882;28;20264;-74
2022/07/08 01:45:35;;;;;;;11.95;11.55;;;;;;;-141.02;100.00;55844.97;5074546;28;20194;-74
2022/07/08 01:48:02;;;;;;;11.63;11.23;;;;;;;-141.02;100.00;55844.97;5074473;28;20191;-74
2022/07/08 01:50:29;;;;;;;10.95;10.65;;;;;;;-141.02;100.00;55844.97;5074452;28;20194;-74
2022/07/08 01:52:57;;;;;;;10.60;10.30;;;;;;;-141.02;100.00;55844.97;5074381;28;20761;-74
2022/07/08 01:55:25;;;;;;;10.95;10.65;;;;;;;-141.02;100.00;55844.97;5074219;28;20226;-74
2022/07/08 01:57:53;;;;;;;10.80;10.50;;;;;;;-141.02;100.00;55844.97;5074617;28;20248;-74
2022/07/08 02:00:20;;;;;;;11.30;11.00;;;;;;;-141.02;100.00;55844.97;5074340;28;20194;-74
2022/07/08 02:02:48;;;;;;;11.00;10.70;;;;;;;-141.02;100.00;55844.97;5074514;28;20202;-74
2022/07/08 02:05:17;;;;;;;10.93;10.63;;;;;;;-141.02;100.00;55844.97;5074194;28;20191;-74
2022/07/08 02:07:44;;;;;;;11.13;10.82;;;;;;;-141.02;100.00;55844.97;5075252;28;20248;-74
2022/07/08 02:10:11;;;;;;;11.00;10.70;;;;;;;-141.02;100.00;55844.97;5074129;28;20190;-74
2022/07/08 02:12:39;;;;;;;10.77;10.48;;;;;;;-141.02;100.00;55844.97;5073933;28;20604;-75
2022/07/08 02:15:08;;;;;;;10.70;10.40;;;;;;;-141.02;100.00;55844.97;5074291;28;20260;-73
2022/07/08 02:17:36;;;;;;;10.70;10.40;;;;;;;-141.02;100.00;55844.97;5073990;28;20195;-73
2022/07/08 02:20:05;;;;;;;11.05;10.75;;;;;;;-141.02;100.00;55844.97;5074172;28;20194;-74
2022/07/08 02:22:33;;;;;;;11.18;10.88;;;;;;;-141.02;100.00;55844.97;5073902;28;20676;-74
2022/07/08 02:25:00;;;;;;;11.65;11.25;;;;;;;-141.02;100.00;55844.97;5072961;28;20198;-74
2022/07/08 02:27:27;;;;;;;10.85;10.55;;;;;;;-141.02;100.00;55844.97;5073721;28;20355;-74
2022/07/08 02:29:56;;;;;;;10.60;10.30;;;;;;;-141.02;100.00;55844.97;5074057;28;20190;-73
2022/07/08 02:32:23;;;;;;;10.57;10.27;;;;;;;-141.02;100.00;55844.97;5073618;28;20229;-74
2022/07/08 02:34:50;;;;;;;10.68;10.38;;;;;;;-141.02;100.00;55844.97;5073913;28;20206;-73
2022/07/08 02:37:18;;;;;;;10.70;10.40;;;;;;;-141.02;100.00;55844.97;5073519;28;20198;-74
2022/07/08 02:39:45;;;;;;;10.90;10.60;;;;;;;-141.02;100.00;55844.97;5073512;28;20205;-73
2022/07/08 02:42:12;;;;;;;11.25;10.95;;;;;;;-141.02;100.00;55844.97;5073496;28;20244;-75
2022/07/08 02:44:39;;;;;;;11.48;11.18;;;;;;;-141.02;100.00;55844.97;5073390;28;20194;-74
2022/07/08 02:47:09;;;;;;;10.82;10.52;;;;;;;-141.02;100.00;55844.97;5073700;28;20294;-74
2022/07/08 02:49:36;;;;;;;11.10;10.80;;;;;;;-141.02;100.00;55844.97;5073258;28;20281;-73
2022/07/08 02:52:03;;;;;;;10.85;10.55;;;;;;;-141.02;100.00;55844.97;5073207;28;20261;-73
2022/07/08 02:54:30;;;;;;;10.65;10.35;;;;;;;-141.02;100.00;55844.97;5072978;28;20198;-74
2022/07/08 02:56:58;;;;;;;10.50;10.20;;;;;;;-141.02;100.00;55844.97;5073191;28;20665;-74
2022/07/08 02:59:25;;;;;;;10.60;10.30;;;;;;;-141.02;100.00;55844.97;5073405;28;20202;-73
2022/07/08 03:01:52;;;;;;;11.10;10.80;;;;;;;-141.02;100.00;55844.97;5073059;28;20199;-73
2022/07/08 03:04:20;;;;;;;10.45;10.15;;;;;;;-141.02;100.00;55844.97;5073348;28;20206;-74
2022/07/08 03:06:47;;;;;;;10.07;9.77;;;;;;;-141.02;100.00;55844.97;5072942;28;20202;-74
2022/07/08 03:09:14;;;;;;;10.00;9.70;;;;;;;-141.02;100.00;55844.97;5074091;28;20204;-74
2022/07/08 03:11:42;;;;;;;10.00;9.70;;;;;;;-141.02;100.00;55844.97;5072832;28;20775;-74
2022/07/08 03:14:09;;;;;;;10.00;9.70;;;;;;;-141.02;100.00;55844.97;5073121;28;20194;-74
2022/07/08 03:16:36;;;;;;;9.75;9.45;;;;;;;-141.02;100.00;55844.97;5072792;28;20244;-74
2022/07/08 03:19:03;;;;;;;10.30;10.00;;;;;;;-141.02;100.00;55844.97;5072747;28;20278;-74
2022/07/08 03:21:32;;;;;;;10.90;10.60;;;;;;;-141.02;100.00;55844.97;5072692;28;20190;-73
2022/07/08 03:23:59;;;;;;;11.00;10.70;;;;;;;-141.02;100.00;55844.97;5072987;28;20269;-73
2022/07/08 03:26:26;;;;;;;11.07;10.77;;;;;;;-141.02;100.00;55844.97;5072633;28;20194;-73
2022/07/08 03:28:53;;;;;;;11.40;11.10;;;;;;;-141.02;100.00;55844.97;5072557;28;20195;-74
2022/07/08 03:31:21;;;;;;;11.05;10.75;;;;;;;-141.02;100.00;55844.97;5072385;28;20197;-74
2022/07/08 03:33:48;;;;;;;11.50;11.20;;;;;;;-141.02;100.00;55844.97;5072825;28;20220;-74
2022/07/08 03:36:15;;;;;;;10.63;10.32;;;;;;;-141.02;100.00;55844.97;5072305;28;20198;-74
2022/07/08 03:38:44;;;;;;;10.15;9.85;;;;;;;-141.02;100.00;55844.97;5072719;28;20190;-74
2022/07/08 03:41:23;;;;;;;9.48;9.18;;;;;;;-141.02;100.00;55844.97;5072657;28;20198;-74
2022/07/08 03:43:51;;;;;;;10.35;10.05;;;;;;;-141.02;100.00;55844.97;5072401;28;20186;-74
2022/07/08 03:46:18;;;;;;;11.25;10.90;;;;;;;-141.02;100.00;55844.97;5072311;28;20198;-74
2022/07/08 03:48:46;;;;;;;12.82;12.43;;;;;;;-141.02;100.00;55844.97;5072252;28;20209;-74
2022/07/08 03:51:14;;;;;;;12.48;12.07;;;;;;;-141.02;100.00;55844.97;5072562;28;20199;-74
2022/07/08 03:53:44;;;;;;;12.45;12.05;;;;;;;-141.02;100.00;55844.97;5072084;28;20706;-74
2022/07/08 03:56:11;;;;;;;12.88;12.48;;;;;;;-141.02;100.00;55844.97;5072126;28;20226;-74
2022/07/08 03:58:39;;;;;;;13.50;13.00;;;;;;;-141.02;100.00;55844.97;5072388;28;20198;-74
2022/07/08 04:01:06;;;;;;;13.65;13.15;;;;;;;-141.02;100.00;55844.97;5072096;28;20256;-74
2022/07/08 04:03:34;;;;;;;13.02;12.63;;;;;;;-141.02;100.00;55844.97;5072398;28;20199;-74
2022/07/08 04:06:01;;;;;;;13.48;12.98;;;;;;;-141.02;100.00;55844.97;5072317;28;20225;-73
2022/07/08 04:08:28;;;;;;;13.50;13.00;;;;;;;-141.02;100.00;55844.97;5072380;28;20285;-74
2022/07/08 04:10:57;;;;;;;14.52;14.02;;;;;;;-141.02;100.00;55844.97;5071985;28;20217;-74
2022/07/08 04:13:27;;;;;;;15.55;14.95;;;;;;;-141.02;100.00;55844.97;5071891;28;20313;-74
2022/07/08 04:15:54;;;;;;;14.90;14.30;;;;;;;-141.02;100.00;55844.97;5072228;28;20198;-74
2022/07/08 04:18:21;;;;;;;15.77;15.18;;;;;;;-141.02;100.00;55844.97;5072200;28;20225;-74
2022/07/08 04:20:48;;;;;;;16.90;16.20;;;;;;;-141.02;100.00;55844.97;5072204;28;20698;-74
2022/07/08 04:23:16;;;;;;;17.08;16.38;;;;;;;-141.02;100.00;55844.97;5071810;28;20248;-74
2022/07/08 04:25:43;;;;;;;18.00;17.20;;;;;;;-141.02;100.00;55844.97;5072130;28;20199;-74
2022/07/08 04:28:12;;;;;;;17.45;16.65;;;;;;;-141.02;100.00;55844.97;5072054;28;20680;-74
2022/07/08 04:30:39;;;;;;;17.88;16.98;;;;;;;-141.02;100.00;55844.97;5072058;28;20198;-74
2022/07/08 04:33:08;;;;;;;17.98;17.17;;;;;;;-141.02;100.00;55844.97;5072027;28;20230;-74
2022/07/08 04:35:35;;;;;;;18.27;17.48;;;;;;;-141.02;100.00;55844.97;5072044;28;20199;-74
2022/07/08 04:38:03;;;;;;;18.52;17.63;;;;;;;-141.02;100.00;55844.97;5071758;28;20194;-74
2022/07/08 04:40:30;;;;;;;18.40;17.50;;;;;;;-141.02;100.00;55844.97;5071973;28;20274;-74
2022/07/08 04:42:57;;;;;;;18.90;17.90;;;;;;;-141.02;100.00;55844.97;5072012;28;20203;-74
2022/07/08 04:45:26;;;;;;;18.45;17.55;;;;;;;-141.02;100.00;55844.97;5071619;28;20285;-74
2022/07/08 04:47:53;;;;;;;19.25;18.25;;;;;;;-141.02;100.00;55844.97;5074051;28;20198;-74
2022/07/08 04:50:20;;;;;;;19.05;18.05;;;;;;;-141.02;100.00;55844.97;5075949;28;20217;-74
2022/07/08 04:52:48;;;;;;;18.85;17.95;;;;;;;-141.02;100.00;55844.97;5075481;28;20275;-73
2022/07/08 04:55:29;;;;;;;19.58;18.58;;;;;;;-141.02;100.00;55844.97;5076051;28;20292;-74
2022/07/08 04:57:57;;;;;;;18.10;17.20;;;;;;;-141.02;80.31;82828.84;5076674;28;20186;-73
2022/07/08 05:00:26;;;;;;;17.45;16.65;;;;;;;-141.02;82.54;82883.22;5075825;28;20198;-74
2022/07/08 05:02:53;;;;;;;18.00;17.10;;;;;;;-141.02;100.00;55844.97;5075352;28;20195;-74
2022/07/08 05:05:21;;;;;;;18.40;17.50;;;;;;;-141.02;100.00;55844.97;5075681;28;20191;-74
2022/07/08 05:07:48;;;;;;;18.45;17.55;;;;;;;-141.02;100.00;55844.97;5075559;28;20576;-74
2022/07/08 05:10:16;;;;;;;17.55;16.75;;;;;;;-141.02;100.00;55844.97;5075243;28;20194;-74
2022/07/08 05:12:43;;;;;;;18.17;17.33;;;;;;;-141.02;100.00;55844.97;5075415;28;20226;-74
2022/07/08 05:15:11;;;;;;;18.50;17.60;;;;;;;-141.02;100.00;55844.97;5075077;28;20194;-74
2022/07/08 05:17:40;;;;;;;18.42;17.52;;;;;;;-141.02;100.00;55844.97;5075090;28;20198;-74
2022/07/08 05:20:10;;;;;;;18.13;17.23;;;;;;;-141.02;100.00;55844.97;5075002;28;20202;-74
2022/07/08 05:22:37;;;;;;;18.00;17.10;;;;;;;-141.02;100.00;55844.97;5075039;28;20199;-74
2022/07/08 05:25:05;;;;;;;17.40;16.60;;;;;;;-141.02;100.00;55844.97;5074967;28;20236;-73
2022/07/08 05:27:32;;;;;;;17.25;16.45;;;;;;;-141.02;100.00;55844.97;5074934;28;20201;-74
2022/07/08 05:29:59;;;;;;;18.70;17.80;;;;;;;-141.02;100.00;55844.97;5074888;28;20195;-74
2022/07/08 05:32:26;;;;;;;18.70;17.80;;;;;;;-141.02;100.00;55844.97;5075066;28;20234;-74
2022/07/08 05:34:55;;;;;;;19.08;18.17;;;;;;;-141.02;100.00;55844.97;5075086;28;20248;-74
2022/07/08 05:37:22;;;;;;;18.73;17.83;;;;;;;-141.02;100.00;55844.97;5074700;28;20205;-73
2022/07/08 05:39:50;;;;;;;18.48;17.58;;;;;;;-141.02;100.00;55844.97;5075577;28;20361;-73
2022/07/08 05:42:17;;;;;;;18.75;17.85;;;;;;;-141.02;100.00;55844.97;5074656;28;20198;-74
2022/07/08 05:44:44;;;;;;;17.60;16.70;;;;;;;-141.02;100.00;55844.97;5074625;28;20198;-73
2022/07/08 05:47:13;;;;;;;17.05;16.25;;;;;;;-141.02;100.00;55844.97;5074559;28;20194;-74
2022/07/08 05:49:43;;;;;;;18.60;17.70;;;;;;;-141.02;100.00;55844.97;5074519;28;20202;-74
2022/07/08 05:52:12;;;;;;;18.50;17.60;;;;;;;-141.02;100.00;55844.97;5074404;28;20263;-72
2022/07/08 05:54:39;;;;;;;17.40;16.60;;;;;;;-141.02;100.00;55844.97;5074108;28;20194;-74
2022/07/08 05:57:06;;;;;;;17.80;17.00;;;;;;;-141.02;100.00;55844.97;5074451;28;20182;-73
2022/07/08 05:59:33;;;;;;;18.35;17.45;;;;;;;-141.02;100.00;55844.97;5072947;28;20202;-74
2022/07/08 06:02:00;;;;;;;17.65;16.80;;;;;;;-141.02;100.00;55844.97;5074288;28;20194;-73
2022/07/08 06:04:28;;;;;;;17.65;16.75;;;;;;;-141.02;100.00;55844.97;5074621;28;20237;-73
2022/07/08 06:06:55;;;;;;;17.77;16.88;;;;;;;-141.02;100.00;55844.97;5074188;28;20575;-73
2022/07/08 06:09:24;;;;;;;18.13;17.23;;;;;;;-141.02;100.00;55844.97;5074454;28;20195;-73
2022/07/08 06:11:51;;;;;;;18.30;17.40;;;;;;;-141.02;100.00;55844.97;5074066;28;20284;-74
2022/07/08 06:14:18;;;;;;;18.58;17.67;;;;;;;-141.02;100.00;55844.97;5074033;28;20273;-73
2022/07/08 06:16:47;;;;;;;18.63;17.73;;;;;;;-141.02;100.00;55844.97;5074389;28;20255;-73
2022/07/08 06:19:14;;;;;;;18.45;17.55;;;;;;;-141.02;100.00;55844.97;5074243;28;20507;-73
2022/07/08 06:21:41;;;;;;;17.60;16.80;;;;;;;-141.02;100.00;55844.97;5074287;28;20244;-73
2022/07/08 06:24:09;;;;;;;17.17;16.38;;;;;;;-141.02;100.00;55844.97;5074196;28;20202;-73
2022/07/08 06:26:37;;;;;;;17.27;16.48;;;;;;;-141.02;100.00;55844.97;5074157;28;20198;-73
2022/07/08 06:29:05;;;;;;;17.20;16.40;;;;;;;-141.02;100.00;55844.97;5074045;28;20205;-73
2022/07/08 06:31:33;;;;;;;16.65;15.85;;;;;;;-141.02;100.00;55844.97;5074010;28;20202;-72
2022/07/08 06:34:00;;;;;;;16.67;15.88;;;;;;;-141.02;100.00;55844.97;5073614;28;20256;-73
2022/07/08 06:36:27;;;;;;;16.88;16.08;;;;;;;-141.02;100.00;55844.97;5073919;28;20201;-73
2022/07/08 06:38:55;;;;;;;17.05;16.25;;;;;;;-141.02;100.00;55844.97;5073910;28;20199;-72
2022/07/08 06:41:22;;;;;;;17.58;16.67;;;;;;;-141.02;100.00;55844.97;5073483;28;20195;-71
2022/07/08 06:43:51;;;;;;;17.70;16.80;;;;;;;-141.02;100.00;55844.97;5073500;28;20195;-74
2022/07/08 06:46:18;;;;;;;17.80;16.90;;;;;;;-141.02;100.00;55844.97;5073735;28;20244;-73
2022/07/08 06:48:46;;;;;;;16.92;16.13;;;;;;;-141.02;100.00;55844.97;5073362;28;20259;-73
2022/07/08 06:51:13;;;;;;;17.30;16.50;;;;;;;-141.02;100.00;55844.97;5073323;28;20229;-72
2022/07/08 06:56:29;;;;;;;17.83;16.92;;;;;;;-141.02;100.00;55844.97;5062564;28;20222;-72
2022/07/08 06:58:58;;;;;;;17.45;16.55;;;;;;;-141.02;100.00;55844.97;5073250;28;20194;-73
2022/07/08 07:01:25;;;;;;;18.02;17.13;;;;;;;-141.02;100.00;55844.97;5073426;28;20191;-73
2022/07/08 07:03:52;;;;;;;17.65;16.75;;;;;;;-141.02;100.00;55844.97;5073067;28;20194;-74
2022/07/08 07:06:19;;;;;;;17.50;16.60;;;;;;;-141.02;100.00;55844.97;5073302;28;20710;-73
2022/07/08 07:08:46;;;;;;;17.92;17.02;;;;;;;-141.02;100.00;55844.97;5072929;28;20202;-73
2022/07/08 07:11:13;;;;;;;17.90;17.00;;;;;;;-141.02;100.00;55844.97;5072892;28;20201;-73
2022/07/08 07:13:40;;;;;;;18.10;17.20;;;;;;;-141.02;100.00;55844.97;5073118;28;20688;-73
2022/07/08 07:16:09;;;;;;;17.30;16.50;;;;;;;-141.02;100.00;55844.97;5073105;28;20205;-73
2022/07/08 07:18:36;;;;;;;17.30;16.50;;;;;;;-141.02;100.00;55844.97;5072856;28;20257;-73
2022/07/08 07:21:04;;;;;;;17.15;16.35;;;;;;;-141.02;100.00;55844.97;5072723;28;20194;-73
2022/07/08 07:23:31;;;;;;;16.70;15.90;;;;;;;-141.02;100.00;55844.97;5072704;28;20877;-73
2022/07/08 07:25:58;;;;;;;17.15;16.35;;;;;;;-141.02;100.00;55844.97;5072695;28;20281;-72
2022/07/08 07:28:25;;;;;;;17.35;16.55;;;;;;;-141.02;100.00;55844.97;5072956;28;20629;-73
2022/07/08 07:30:52;;;;;;;17.30;16.50;;;;;;;-141.02;100.00;55844.97;5072569;28;20190;-72
2022/07/08 07:33:21;;;;;;;17.58;16.67;;;;;;;-141.02;100.00;55844.97;5072387;28;20258;-72
2022/07/08 07:35:48;;;;;;;17.63;16.73;;;;;;;-141.02;100.00;55844.97;5072807;28;20194;-73
2022/07/08 07:38:15;;;;;;;17.25;16.35;;;;;;;-141.02;100.00;55844.97;5072368;28;20194;-73
2022/07/08 07:40:42;;;;;;;17.27;16.38;;;;;;;-141.02;100.00;55844.97;5072670;28;20237;-74
2022/07/08 07:43:09;;;;;;;17.23;16.33;;;;;;;-141.02;100.00;55844.97;5072431;28;20680;-73
2022/07/08 07:45:36;;;;;;;17.58;16.67;;;;;;;-141.02;100.00;55844.97;5072634;28;20660;-73
2022/07/08 07:48:04;;;;;;;17.90;17.00;;;;;;;-141.02;100.00;55844.97;5072602;28;20277;-73
2022/07/08 07:50:32;;;;;;;17.95;17.05;;;;;;;-141.02;100.00;55844.97;5072553;28;20267;-74
2022/07/08 07:52:59;;;;;;;17.55;16.65;;;;;;;-141.02;100.00;55844.97;5072440;28;20716;-74
2022/07/08 07:55:27;;;;;;;17.60;16.73;;;;;;;-141.02;100.00;55844.97;5072160;28;20314;-73
2022/07/08 07:57:54;;;;;;;17.17;16.38;;;;;;;-141.02;100.00;55844.97;5072441;28;20229;-73
2022/07/08 08:00:22;;;;;;;16.88;16.08;;;;;;;-141.02;72.15;82626.81;5073307;28;20252;-73
2022/07/08 08:02:49;;;;;;;17.67;16.77;;;;;;;-141.02;100.00;55844.97;5072063;28;20197;-73
2022/07/08 08:05:16;;;;;;;17.10;16.30;;;;;;;-141.02;100.00;55844.97;5072409;28;20267;-74
2022/07/08 08:07:45;;;;;;;17.63;16.73;;;;;;;-141.02;100.00;55844.97;5072009;28;20692;-73
2022/07/08 08:10:13;;;;;;;17.50;16.60;;;;;;;-141.02;100.00;55844.97;5071967;28;20233;-73
2022/07/08 08:12:40;;;;;;;17.67;16.77;;;;;;;-141.02;71.41;82560.78;5072018;28;20198;-73
2022/07/08 08:15:09;;;;;;;17.45;16.58;;;;;;;-141.02;69.98;82560.78;5072155;28;20244;-74
2022/07/08 08:17:37;;;;;;;17.80;16.90;;;;;;;-141.02;100.00;55844.97;5071963;28;20281;-73
2022/07/08 08:20:06;;;;;;;16.73;15.82;;;;;;;-141.02;73.06;82597.69;5071918;28;20194;-73
2022/07/08 08:22:33;;;;;;;16.75;15.85;;;;;;;-141.02;100.00;55844.97;5071386;28;20297;-73
2022/07/08 08:25:02;;;;;;;16.95;16.05;;;;;;;-141.02;100.00;55844.97;5071817;28;20198;-73
2022/07/08 08:27:29;;;;;;;16.85;15.95;;;;;;;-141.02;100.00;55844.97;5072228;28;20198;-73
2022/07/08 08:29:57;;;;;;;17.10;16.20;;;;;;;-141.02;100.00;55844.97;5071877;28;20281;-73
2022/07/08 08:32:24;;;;;;;17.35;16.45;;;;;;;-141.02;100.00;55844.97;5072099;28;20237;-72
2022/07/08 08:34:51;;;;;;;17.40;16.50;;;;;;;-141.02;100.00;55844.97;5071716;28;20316;-73
2022/07/08 08:37:18;;;;;;;17.13;16.23;;;;;;;-141.02;100.00;55844.97;5071709;28;20198;-73
2022/07/08 08:39:45;;;;;;;17.25;16.35;;;;;;;-141.02;100.00;55844.97;5072081;28;20559;-73
2022/07/08 08:42:16;;;;;;;17.63;16.73;;;;;;;-141.02;100.00;55844.97;5071773;28;20219;-73
2022/07/08 08:44:43;;;;;;;17.40;16.50;;;;;;;-141.02;100.00;55844.97;5072034;28;20264;-73
2022/07/08 08:47:13;;;;;;;18.55;17.65;;;;;;;-141.02;100.00;55844.97;5072031;28;20243;-73
2022/07/08 08:49:42;;;;;;;18.65;17.75;;;;;;;-141.02;100.00;55844.97;5071684;28;20225;-73
2022/07/08 08:52:11;;;;;;;17.48;16.58;;;;;;;-141.02;100.00;55844.97;5071931;28;20191;-73
2022/07/08 08:54:39;;;;;;;17.38;16.48;;;;;;;-141.02;100.00;55844.97;5071517;28;20283;-74
2022/07/08 08:57:08;;;;;;;17.13;16.23;;;;;;;-141.02;100.00;55844.97;5071894;28;20219;-74
2022/07/08 08:59:37;;;;;;;16.88;15.98;;;;;;;-141.02;100.00;55844.97;5071822;28;20230;-73
2022/07/08 09:02:05;;;;;;;17.05;16.15;;;;;;;-141.02;100.00;55844.97;5071517;28;20282;-73
2022/07/08 09:04:32;;;;;;;17.35;16.45;;;;;;;-141.02;100.00;55844.97;5071815;28;20275;-73
2022/07/08 09:07:00;;;;;;;17.20;16.30;;;;;;;-141.02;100.00;55844.97;5071790;28;20199;-72
2022/07/08 09:09:28;;;;;;;17.75;16.75;;;;;;;-141.02;100.00;55844.97;5071522;28;20699;-74
2022/07/08 09:11:55;;;;;;;17.70;16.70;;;;;;;-141.02;100.00;55844.97;5071373;28;20647;-73
2022/07/08 09:14:23;;;;;;;17.88;16.88;;;;;;;-141.02;100.00;55844.97;5071602;28;20290;-73
2022/07/08 09:17:11;;;;;;;18.13;17.13;;;;;;;-141.02;100.00;55844.97;5071647;28;20222;-74
2022/07/08 09:19:38;;;;;;;19.23;18.13;;;;;;;-141.02;100.00;55844.97;5071759;28;20264;-74
2022/07/08 09:22:07;;;;;;;18.20;17.10;;;;;;;-141.02;100.00;55844.97;5071597;28;20199;-74
2022/07/08 09:24:35;;;;;;;18.15;17.05;;;;;;;-141.02;100.00;55844.97;5071257;28;20247;-72
2022/07/08 09:27:03;;;;;;;18.10;17.00;;;;;;;-141.02;100.00;55844.97;5071256;28;20289;-74
2022/07/08 09:29:31;;;;;;;17.95;16.88;;;;;;;-141.02;100.00;55844.97;5072134;28;20199;-73
2022/07/08 09:32:13;;;;;;;18.17;17.08;;;;;;;-141.02;100.00;55844.97;5071262;28;20199;-74
2022/07/08 09:34:41;;;;;;;17.33;16.33;;;;;;;-141.02;100.00;55844.97;5074211;28;20305;-73
2022/07/08 09:37:13;;;;;;;18.40;17.30;;;;;;;-141.02;100.00;55844.97;5074755;28;20225;-73
2022/07/08 09:39:40;;;;;;;18.30;17.20;;;;;;;-141.02;100.00;55844.97;5075049;28;20251;-73
2022/07/08 09:42:08;;;;;;;18.05;16.95;;;;;;;-141.02;100.00;55844.97;5074744;28;20252;-72
2022/07/08 09:44:36;;;;;;;17.85;16.75;;;;;;;-141.02;65.13;82393.75;5074917;28;20198;-74
2022/07/08 09:47:11;;;;;;;17.77;16.67;;;;;;;-141.02;63.68;82277.22;5074944;28;20260;-74
2022/07/08 09:49:41;;;;;;;18.27;17.17;;;;;;;-141.02;60.27;82213.13;5074875;28;20218;-73
2022/07/08 09:52:09;;;;;;;17.75;16.65;;;;;;;-141.02;100.00;55844.97;5075134;28;20197;-75
2022/07/08 09:54:37;;;;;;;17.20;16.20;;;;;;;-141.02;100.00;55844.97;5074152;28;20692;-73
2022/07/08 09:57:06;;;;;;;17.40;16.40;;;;;;;-141.02;100.00;55844.97;5074441;28;20187;-73
2022/07/08 09:59:35;;;;;;;17.75;16.65;;;;;;;-141.02;100.00;55844.97;5074287;28;20251;-75
2022/07/08 10:02:02;;;;;;;17.20;16.20;;;;;;;-141.02;100.00;55844.97;5075483;28;20206;-74
2022/07/08 10:04:30;;;;;;;17.27;16.27;;;;;;;-141.02;100.00;55844.97;5074298;28;20199;-73
2022/07/08 10:06:58;;;;;;;17.30;16.30;;;;;;;-141.02;100.00;55844.97;5074249;28;20290;-73
2022/07/08 10:09:27;;;;;;;17.33;16.33;;;;;;;-141.02;100.00;55844.97;5074168;28;20200;-73
2022/07/08 10:11:54;;;;;;;17.27;16.27;;;;;;;-141.02;100.00;55844.97;5074079;28;20195;-73
2022/07/08 10:14:22;;;;;;;17.45;16.45;;;;;;;-141.02;100.00;55844.97;5073992;28;20222;-75
2022/07/08 10:16:50;;;;;;;17.42;16.42;;;;;;;-141.02;100.00;55844.97;5074025;28;20617;-74
2022/07/08 10:19:22;;;;;;;17.30;16.30;;;;;;;-141.02;100.00;55844.97;5074021;28;20653;-73
2022/07/08 10:21:55;;;;;;;17.55;16.55;;;;;;;-141.02;100.00;55844.97;5074307;28;20191;-72
2022/07/08 10:24:26;;;;;;;17.80;16.80;;;;;;;-141.02;100.00;55844.97;5073946;28;20225;-73
2022/07/08 10:26:58;;;;;;;17.42;16.42;;;;;;;-141.02;100.00;55844.97;5073849;28;20244;-73
2022/07/08 10:29:30;;;;;;;17.73;16.63;;;;;;;-141.02;100.00;55844.97;5074146;28;20624;-73
2022/07/08 10:31:58;;;;;;;17.60;16.60;;;;;;;-141.02;100.00;55844.97;5073832;28;20193;-73
2022/07/08 10:34:30;;;;;;;18.08;16.98;;;;;;;-141.02;100.00;55844.97;5073902;28;20261;-74
2022/07/08 10:36:59;;;;;;;17.88;16.77;;;;;;;-141.02;100.00;55844.97;5073736;28;20197;-74
2022/07/08 10:39:27;;;;;;;17.45;16.45;;;;;;;-141.02;100.00;55844.97;5073562;28;20194;-73
2022/07/08 10:41:59;;;;;;;18.08;16.98;;;;;;;-141.02;100.00;55844.97;5073542;28;20210;-74
2022/07/08 10:44:52;;;;;;;18.20;17.10;;;;;;;-141.02;100.00;55844.97;5073029;28;20194;-74
2022/07/08 10:47:25;;;;;;;18.02;16.92;;;;;;;-141.02;100.00;55844.97;5073406;28;20578;-76
2022/07/08 10:49:52;;;;;;;17.98;16.88;;;;;;;-141.02;100.00;55844.97;5073466;28;20724;-74
2022/07/08 10:52:33;;;;;;;18.35;17.15;;;;;;;-141.02;100.00;55844.97;5073385;28;20194;-72
2022/07/08 10:55:12;;;;;;;17.92;16.83;;;;;;;-141.02;100.00;55844.97;5073065;28;20660;-73
2022/07/08 10:57:40;;;;;;;17.95;16.85;;;;;;;-141.02;100.00;55844.97;5073770;28;20194;-72
2022/07/08 11:00:14;;;;;;;18.17;17.02;;;;;;;-141.02;100.00;55844.97;5073480;28;20203;-73
2022/07/08 11:02:43;;;;;;;18.15;16.95;;;;;;;-141.02;100.00;55844.97;5073169;28;20193;-72